Time;durP1;ratioP1;P1;durP2;ratioP2;P2;SDS_P1;SDS_P2;PMS_P1;PMS_P2;Temp;Humidity;BMP_temperature;BMP_pressure;BME280_temperature;BME280_humidity;BME280_pressure;Samples;Min_cycle;Max_cycle;Signal;HPM_P1;HPM_P2
2023/03/25 00:00:38;;;;;;;14.10;5.82;;;;;;;;;;5039544;28;20076;-88
2023/03/25 00:03:04;;;;;;;8.73;5.05;;;;;;;;;;5038359;28;20025;-87
2023/03/25 00:05:30;;;;;;;10.88;5.82;;;;;;;;;;5038320;28;20120;-87
2023/03/25 00:14:57;;;;;;;7.25;4.60;;;;;;;;;;5039539;28;20024;-88
2023/03/25 00:17:27;;;;;;;9.25;4.68;;;;;;;;;;5038824;28;20159;-88
2023/03/25 00:19:54;;;;;;;9.82;4.70;;;;;;;;;;5039043;28;20030;-88
2023/03/25 00:22:20;;;;;;;9.20;4.70;;;;;;;;;;5039156;28;20411;-89
2023/03/25 00:24:47;;;;;;;10.98;6.78;;;;;;;;;;5038019;28;20037;-87
2023/03/25 00:27:16;;;;;;;16.30;7.25;;;;;;;;;;5038309;28;20038;-88
2023/03/25 00:29:42;;;;;;;16.17;8.05;;;;;;;;;;5039255;28;20027;-89
2023/03/25 00:32:09;;;;;;;15.40;8.60;;;;;;;;;;5038804;28;20328;-90
2023/03/25 00:34:40;;;;;;;13.68;7.97;;;;;;;;;;5037713;28;20022;-89
2023/03/25 00:37:07;;;;;;;15.00;7.60;;;;;;;;;;5037921;28;20033;-90
2023/03/25 00:39:33;;;;;;;17.90;9.05;;;;;;;;;;5038737;28;20037;-91
2023/03/25 00:42:00;;;;;;;13.27;7.15;;;;;;;;;;5038355;28;20064;-90
2023/03/25 00:44:27;;;;;;;14.25;7.32;;;;;;;;;;5037764;28;20029;-89
2023/03/25 00:46:53;;;;;;;11.07;7.38;;;;;;;;;;5037621;28;20030;-89
2023/03/25 00:49:23;;;;;;;15.48;6.63;;;;;;;;;;5038002;28;20025;-89
2023/03/25 00:51:50;;;;;;;13.40;7.00;;;;;;;;;;5038422;28;20101;-90
2023/03/25 00:54:17;;;;;;;8.75;6.07;;;;;;;;;;5038645;28;20026;-89
2023/03/25 00:56:43;;;;;;;12.40;6.40;;;;;;;;;;5037379;28;20052;-88
2023/03/25 00:59:09;;;;;;;9.43;6.68;;;;;;;;;;5038062;28;20025;-89
2023/03/25 01:01:38;;;;;;;13.65;6.97;;;;;;;;;;5038357;28;20061;-89
2023/03/25 01:04:10;;;;;;;9.45;6.05;;;;;;;;;;5038616;28;20032;-88
2023/03/25 01:06:40;;;;;;;10.43;6.63;;;;;;;;;;5037251;28;20034;-88
2023/03/25 01:09:08;;;;;;;11.20;6.70;;;;;;;;;;5038037;28;20025;-88
2023/03/25 01:11:37;;;;;;;12.07;6.45;;;;;;;;;;5038110;28;20028;-89
2023/03/25 01:14:04;;;;;;;14.20;7.00;;;;;;;;;;5038062;28;20037;-87
2023/03/25 01:16:32;;;;;;;12.48;6.25;;;;;;;;;;5037397;28;20112;-87
2023/03/25 01:18:58;;;;;;;11.77;6.60;;;;;;;;;;5038142;28;20025;-87
2023/03/25 01:21:24;;;;;;;10.85;6.88;;;;;;;;;;5037965;28;20025;-87
2023/03/25 01:24:27;;;;;;;12.45;6.97;;;;;;;;;;5036970;28;20120;-88
2023/03/25 01:26:53;;;;;;;10.15;6.25;;;;;;;;;;5036582;28;20085;-87
2023/03/25 01:29:20;;;;;;;14.32;6.50;;;;;;;;;;5036777;28;20112;-87
2023/03/25 01:31:47;;;;;;;14.43;6.45;;;;;;;;;;5037240;28;20018;-88
2023/03/25 01:34:14;;;;;;;16.42;6.65;;;;;;;;;;5036736;28;20021;-88
2023/03/25 01:36:45;;;;;;;11.15;6.32;;;;;;;;;;5037962;28;20036;-87
2023/03/25 01:39:11;;;;;;;11.68;6.20;;;;;;;;;;5037868;28;20033;-89
2023/03/25 01:41:37;;;;;;;10.80;5.90;;;;;;;;;;5038004;28;20064;-89
2023/03/25 01:44:28;;;;;;;9.77;5.47;;;;;;;;;;5037920;28;20032;-89
2023/03/25 01:46:55;;;;;;;6.80;5.28;;;;;;;;;;5036347;28;20500;-89
2023/03/25 01:49:28;;;;;;;9.88;5.70;;;;;;;;;;5037858;28;20034;-89
2023/03/25 01:51:57;;;;;;;10.38;5.05;;;;;;;;;;5037691;28;20026;-88
2023/03/25 01:57:29;;;;;;;8.63;4.97;;;;;;;;;;5041647;28;20074;-88
2023/03/25 01:59:56;;;;;;;9.77;5.68;;;;;;;;;;5040713;28;20112;-88
2023/03/25 02:02:24;;;;;;;7.25;5.10;;;;;;;;;;5041265;28;20099;-88
2023/03/25 02:04:57;;;;;;;8.60;5.15;;;;;;;;;;5041567;28;20160;-90
2023/03/25 02:07:34;;;;;;;11.93;5.45;;;;;;;;;;5040598;28;20036;-89
2023/03/25 02:10:03;;;;;;;8.20;5.05;;;;;;;;;;5040692;28;20025;-89
2023/03/25 02:12:29;;;;;;;8.57;4.65;;;;;;;;;;5041705;28;20025;-89
2023/03/25 02:14:57;;;;;;;10.43;4.35;;;;;;;;;;5041298;28;20396;-87
2023/03/25 02:17:35;;;;;;;7.63;4.47;;;;;;;;;;5040132;28;20034;-88
2023/03/25 02:20:13;;;;;;;8.80;4.10;;;;;;;;;;5041282;28;20032;-87
2023/03/25 02:22:58;;;;;;;7.30;4.40;;;;;;;;;;5041168;28;20057;-87
2023/03/25 02:25:28;;;;;;;7.18;4.75;;;;;;;;;;5040310;28;20462;-88
2023/03/25 02:28:03;;;;;;;5.90;4.13;;;;;;;;;;5040870;28;20037;-90
2023/03/25 02:30:48;;;;;;;7.35;4.30;;;;;;;;;;5040227;28;20083;-89
2023/03/25 02:33:33;;;;;;;10.98;5.68;;;;;;;;;;5041006;28;20022;-89
2023/03/25 02:36:13;;;;;;;6.90;4.05;;;;;;;;;;5040076;28;20121;-90
2023/03/25 02:38:39;;;;;;;13.63;5.20;;;;;;;;;;5040990;28;20033;-89
2023/03/25 02:41:24;;;;;;;15.25;6.55;;;;;;;;;;5040818;28;20033;-89
2023/03/25 02:44:07;;;;;;;19.60;7.80;;;;;;;;;;5040384;28;20061;-89
2023/03/25 02:46:35;;;;;;;19.88;7.68;;;;;;;;;;5039793;28;20033;-89
2023/03/25 02:49:01;;;;;;;17.85;7.03;;;;;;;;;;5041066;28;20033;-89
2023/03/25 02:51:29;;;;;;;11.18;5.55;;;;;;;;;;5039720;28;20029;-88
2023/03/25 02:53:58;;;;;;;6.20;4.32;;;;;;;;;;5040605;28;20111;-89
2023/03/25 02:56:25;;;;;;;5.28;3.88;;;;;;;;;;5039396;28;20021;-89
2023/03/25 02:58:54;;;;;;;5.85;3.75;;;;;;;;;;5040100;28;20114;-87
2023/03/25 03:01:21;;;;;;;6.93;3.50;;;;;;;;;;5040547;28;20029;-88
2023/03/25 03:03:47;;;;;;;5.50;3.35;;;;;;;;;;5040681;28;20030;-87
2023/03/25 03:06:16;;;;;;;5.35;3.15;;;;;;;;;;5040713;28;20029;-87
2023/03/25 03:08:51;;;;;;;7.35;3.85;;;;;;;;;;5040641;28;20026;-87
2023/03/25 03:11:22;;;;;;;5.55;3.40;;;;;;;;;;5039643;28;20419;-87
2023/03/25 03:14:07;;;;;;;5.05;3.60;;;;;;;;;;5040731;28;20026;-87
2023/03/25 03:16:42;;;;;;;5.70;4.03;;;;;;;;;;5039875;28;20080;-89
2023/03/25 03:19:33;;;;;;;7.70;3.47;;;;;;;;;;5040039;28;20029;-87
2023/03/25 03:22:17;;;;;;;6.43;4.00;;;;;;;;;;5039252;28;20120;-87
2023/03/25 03:25:02;;;;;;;8.20;3.80;;;;;;;;;;5037678;28;20037;-87
2023/03/25 03:27:32;;;;;;;5.30;3.50;;;;;;;;;;5039987;28;20042;-88
2023/03/25 03:30:19;;;;;;;5.32;3.40;;;;;;;;;;5040361;28;20404;-87
2023/03/25 03:32:52;;;;;;;6.18;3.67;;;;;;;;;;5039798;28;20026;-88
2023/03/25 03:35:27;;;;;;;5.45;3.47;;;;;;;;;;5040110;28;20017;-88
2023/03/25 03:38:02;;;;;;;5.68;3.17;;;;;;;;;;5039817;28;20034;-87
2023/03/25 03:40:30;;;;;;;4.47;3.00;;;;;;;;;;5038807;28;20071;-88
2023/03/25 03:43:02;;;;;;;4.30;3.03;;;;;;;;;;5039119;28;20040;-88
2023/03/25 03:45:28;;;;;;;;;;;;;;;;;;5040253;28;20076;-88
2023/03/25 03:47:56;;;;;;;8.18;3.40;;;;;;;;;;5039955;28;19909;-88
2023/03/25 03:50:25;;;;;;;6.57;3.45;;;;;;;;;;5039917;28;20022;-87
2023/03/25 03:56:02;;;;;;;5.88;3.78;;;;;;;;;;5039365;28;20155;-88
2023/03/25 03:58:33;;;;;;;6.80;3.90;;;;;;;;;;5039487;28;20072;-87
2023/03/25 04:01:15;;;;;;;6.97;3.90;;;;;;;;;;5039617;28;20024;-88
2023/03/25 04:03:52;;;;;;;7.25;4.30;;;;;;;;;;5039668;28;20368;-88
2023/03/25 04:06:34;;;;;;;8.65;4.55;;;;;;;;;;5019561;28;20424;-87
2023/03/25 04:12:16;;;;;;;9.25;7.50;;;;;;;;;;5019411;28;20023;-88
2023/03/25 04:14:42;;;;;;;5.78;3.95;;;;;;;;;;5018772;28;20030;-87
2023/03/25 04:17:08;;;;;;;9.32;5.00;;;;;;;;;;5032158;28;20068;-87
2023/03/25 04:19:34;;;;;;;9.18;5.18;;;;;;;;;;5038463;28;20041;-87
2023/03/25 04:22:01;;;;;;;6.93;4.50;;;;;;;;;;5039180;28;20021;-87
2023/03/25 04:24:30;;;;;;;10.75;5.30;;;;;;;;;;5038968;28;20516;-89
2023/03/25 04:27:03;;;;;;;8.35;5.13;;;;;;;;;;5038720;28;20432;-88
2023/03/25 04:29:32;;;;;;;10.27;4.95;;;;;;;;;;5039167;28;20021;-90
2023/03/25 04:31:59;;;;;;;6.25;3.95;;;;;;;;;;5037904;28;20089;-88
2023/03/25 04:34:26;;;;;;;5.78;3.38;;;;;;;;;;5038957;28;20021;-88
2023/03/25 04:36:52;;;;;;;6.60;3.17;;;;;;;;;;5038818;28;20033;-87
2023/03/25 04:42:36;;;;;;;12.07;5.82;;;;;;;;;;5038575;28;20143;-87
2023/03/25 04:45:03;;;;;;;10.57;5.10;;;;;;;;;;5038545;28;20038;-88
2023/03/25 04:47:29;;;;;;;9.63;4.72;;;;;;;;;;5038503;28;20030;-87
2023/03/25 04:49:55;;;;;;;9.85;5.03;;;;;;;;;;5038340;28;20117;-86
2023/03/25 04:52:21;;;;;;;14.07;6.43;;;;;;;;;;5037498;28;20018;-86
2023/03/25 04:54:47;;;;;;;25.48;13.80;;;;;;;;;;5038465;28;20037;-86
2023/03/25 04:57:14;;;;;;;61.17;34.90;;;;;;;;;;5038456;28;20021;-87
2023/03/25 04:59:40;;;;;;;49.95;27.33;;;;;;;;;;5038619;28;20034;-87
2023/03/25 05:02:06;;;;;;;34.30;18.13;;;;;;;;;;5038222;28;20036;-87
2023/03/25 05:04:33;;;;;;;19.38;10.32;;;;;;;;;;5037583;28;20044;-87
2023/03/25 05:06:59;;;;;;;13.05;7.18;;;;;;;;;;5038016;28;20036;-87
2023/03/25 05:09:43;;;;;;;11.45;6.60;;;;;;;;;;5036991;28;20082;-87
2023/03/25 05:12:10;;;;;;;15.70;9.13;;;;;;;;;;5037264;28;20041;-87
2023/03/25 05:14:36;;;;;;;14.02;7.85;;;;;;;;;;5037952;28;20022;-87
2023/03/25 05:17:02;;;;;;;13.82;6.85;;;;;;;;;;5037051;28;20119;-87
2023/03/25 05:19:28;;;;;;;13.80;5.63;;;;;;;;;;5036936;28;20037;-87
2023/03/25 05:21:55;;;;;;;13.75;5.70;;;;;;;;;;5037925;28;20103;-88
2023/03/25 05:24:21;;;;;;;11.35;4.53;;;;;;;;;;5037907;28;20033;-89
2023/03/25 05:26:47;;;;;;;7.82;4.15;;;;;;;;;;5037699;28;20037;-88
2023/03/25 05:29:14;;;;;;;10.02;6.22;;;;;;;;;;5036208;28;20061;-89
2023/03/25 05:31:44;;;;;;;8.80;5.63;;;;;;;;;;5036906;28;20324;-88
2023/03/25 05:34:13;;;;;;;8.48;4.72;;;;;;;;;;5038170;28;20320;-88
2023/03/25 05:36:40;;;;;;;8.60;5.20;;;;;;;;;;5037820;28;20354;-88
2023/03/25 05:39:34;;;;;;;8.27;5.40;;;;;;;;;;5038085;28;20108;-88
2023/03/25 05:42:02;;;;;;;8.52;5.20;;;;;;;;;;5037681;28;20021;-88
2023/03/25 05:44:28;;;;;;;8.52;4.78;;;;;;;;;;5037682;28;20037;-88
2023/03/25 05:46:54;;;;;;;8.30;4.22;;;;;;;;;;5037516;28;20035;-86
2023/03/25 05:49:20;;;;;;;9.70;4.57;;;;;;;;;;5036954;28;20116;-86
2023/03/25 05:51:48;;;;;;;8.00;4.40;;;;;;;;;;5037704;28;20028;-86
2023/03/25 05:57:18;;;;;;;7.35;3.38;;;;;;;;;;5037454;28;20076;-87
2023/03/25 05:59:44;;;;;;;8.05;3.80;;;;;;;;;;5036613;28;20040;-87
2023/03/25 06:02:14;;;;;;;7.25;3.65;;;;;;;;;;5037569;28;20018;-87
2023/03/25 06:04:41;;;;;;;7.10;4.60;;;;;;;;;;5037304;28;20032;-87
2023/03/25 06:07:18;;;;;;;9.02;4.80;;;;;;;;;;5036445;28;20033;-87
2023/03/25 06:09:45;;;;;;;9.93;4.82;;;;;;;;;;5037380;28;20076;-87
2023/03/25 06:12:19;;;;;;;10.43;5.20;;;;;;;;;;5036990;28;20719;-86
2023/03/25 06:14:46;;;;;;;13.20;6.05;;;;;;;;;;5037533;28;20029;-87
2023/03/25 06:17:12;;;;;;;9.77;5.85;;;;;;;;;;5036657;28;20140;-87
2023/03/25 06:19:39;;;;;;;11.85;5.72;;;;;;;;;;5037659;28;20022;-86
2023/03/25 06:22:08;;;;;;;7.85;5.35;;;;;;;;;;5036320;28;20406;-86
2023/03/25 06:27:40;;;;;;;6.60;5.28;;;;;;;;;;5004659;28;20089;-86
2023/03/25 06:30:08;;;;;;;5.93;4.93;;;;;;;;;;5037268;28;20040;-86
2023/03/25 06:32:35;;;;;;;7.20;5.03;;;;;;;;;;5037388;28;20025;-86
2023/03/25 06:35:01;;;;;;;7.55;4.90;;;;;;;;;;5037345;28;20408;-86
2023/03/25 06:37:27;;;;;;;5.28;4.68;;;;;;;;;;5037371;28;20029;-86
2023/03/25 06:42:57;;;;;;;6.10;4.70;;;;;;;;;;5021412;28;20076;-86
2023/03/25 06:45:23;;;;;;;6.10;3.85;;;;;;;;;;5019931;28;20049;-86
2023/03/25 06:47:49;;;;;;;6.40;3.80;;;;;;;;;;5021126;28;20029;-86
2023/03/25 06:50:15;;;;;;;8.73;4.50;;;;;;;;;;5020936;28;20014;-86
2023/03/25 06:52:41;;;;;;;4.75;3.83;;;;;;;;;;5029538;28;20451;-87
2023/03/25 06:55:44;;;;;;;4.68;3.33;;;;;;;;;;5040749;28;20407;-87
2023/03/25 06:58:11;;;;;;;6.38;3.63;;;;;;;;;;5039718;28;20146;-86
2023/03/25 07:00:37;;;;;;;3.00;2.58;;;;;;;;;;5039893;28;20309;-87
2023/03/25 07:03:03;;;;;;;7.43;3.35;;;;;;;;;;5040876;28;20467;-86
2023/03/25 07:05:29;;;;;;;6.30;2.72;;;;;;;;;;5039216;28;20037;-89
2023/03/25 07:07:55;;;;;;;5.22;3.58;;;;;;;;;;5040872;28;20030;-88
2023/03/25 07:10:21;;;;;;;4.30;2.80;;;;;;;;;;5040179;28;20502;-88
2023/03/25 07:12:47;;;;;;;3.58;2.90;;;;;;;;;;5039466;28;20065;-88
2023/03/25 07:15:14;;;;;;;4.28;2.75;;;;;;;;;;5039342;28;20021;-87
2023/03/25 07:17:41;;;;;;;3.10;2.47;;;;;;;;;;5040385;28;20376;-87
2023/03/25 07:20:08;;;;;;;3.33;2.58;;;;;;;;;;5039613;28;20108;-84
2023/03/25 07:22:34;;;;;;;2.53;2.13;;;;;;;;;;5039629;28;20021;-87
2023/03/25 07:25:19;;;;;;;4.15;2.20;;;;;;;;;;5039399;28;20140;-86
2023/03/25 07:27:45;;;;;;;2.17;1.92;;;;;;;;;;5022313;28;20021;-87
2023/03/25 07:30:12;;;;;;;3.20;2.20;;;;;;;;;;5026650;28;20035;-89
2023/03/25 07:32:38;;;;;;;3.50;2.10;;;;;;;;;;5040954;28;20419;-88
2023/03/25 07:35:05;;;;;;;3.85;1.60;;;;;;;;;;5040266;28;20403;-87
2023/03/25 07:37:31;;;;;;;2.47;1.65;;;;;;;;;;5038942;28;20026;-88
2023/03/25 07:39:57;;;;;;;3.92;2.10;;;;;;;;;;5023513;28;20025;-87
2023/03/25 07:42:23;;;;;;;2.63;1.80;;;;;;;;;;5019066;28;20436;-87
2023/03/25 07:44:50;;;;;;;3.33;1.35;;;;;;;;;;5026703;28;20025;-87
2023/03/25 07:47:17;;;;;;;1.42;1.15;;;;;;;;;;5039890;28;20446;-86
2023/03/25 07:49:46;;;;;;;2.75;1.25;;;;;;;;;;5039919;28;20033;-87
2023/03/25 07:52:12;;;;;;;2.30;1.30;;;;;;;;;;5038919;28;20041;-87
2023/03/25 07:54:38;;;;;;;2.15;1.35;;;;;;;;;;5038836;28;20060;-88
2023/03/25 07:57:04;;;;;;;1.00;0.90;;;;;;;;;;5039039;28;20136;-85
2023/03/25 07:59:31;;;;;;;1.83;1.02;;;;;;;;;;5039482;28;20108;-88
2023/03/25 08:01:57;;;;;;;5.97;1.02;;;;;;;;;;5039427;28;20423;-86
2023/03/25 08:04:23;;;;;;;2.88;1.33;;;;;;;;;;5038418;28;20036;-87
2023/03/25 08:06:49;;;;;;;1.98;1.00;;;;;;;;;;5039234;28;20029;-87
2023/03/25 08:09:15;;;;;;;1.45;1.35;;;;;;;;;;5039264;28;20017;-87
2023/03/25 08:11:41;;;;;;;2.25;1.00;;;;;;;;;;5038697;28;20029;-87
2023/03/25 08:14:07;;;;;;;1.42;1.10;;;;;;;;;;5022431;28;20030;-86
2023/03/25 08:16:33;;;;;;;1.58;0.90;;;;;;;;;;5034909;28;20034;-86
2023/03/25 08:18:59;;;;;;;1.95;0.90;;;;;;;;;;5025601;28;20033;-87
2023/03/25 08:21:26;;;;;;;1.40;1.00;;;;;;;;;;5028588;28;20048;-86
2023/03/25 08:23:57;;;;;;;4.05;1.58;;;;;;;;;;5039175;28;20037;-87
2023/03/25 08:26:24;;;;;;;2.30;1.30;;;;;;;;;;5023047;28;20028;-86
2023/03/25 08:28:50;;;;;;;4.03;1.83;;;;;;;;;;5039008;28;20033;-87
2023/03/25 08:31:19;;;;;;;3.75;2.00;;;;;;;;;;5029169;28;20018;-87
2023/03/25 08:33:45;;;;;;;5.68;1.92;;;;;;;;;;5018989;28;20105;-88
2023/03/25 08:36:13;;;;;;;3.33;1.67;;;;;;;;;;5019281;28;20408;-87
2023/03/25 08:38:45;;;;;;;2.83;1.80;;;;;;;;;;5018788;28;20320;-88
2023/03/25 08:41:10;;;;;;;;;;;;;;;;;;5019610;28;20033;-88
2023/03/25 08:43:37;;;;;;;2.00;1.30;;;;;;;;;;5019125;28;19932;-88
2023/03/25 08:46:03;;;;;;;3.80;2.00;;;;;;;;;;5037737;28;20064;-94
2023/03/25 08:48:29;;;;;;;8.50;3.75;;;;;;;;;;5037487;28;20121;-94
2023/03/25 08:50:55;;;;;;;7.03;4.03;;;;;;;;;;5037478;28;20024;-94
2023/03/25 08:53:22;;;;;;;5.88;2.20;;;;;;;;;;5024728;28;20037;-93
2023/03/25 08:56:13;;;;;;;4.60;2.50;;;;;;;;;;5037677;28;20171;-92
2023/03/25 08:58:59;;;;;;;6.45;2.83;;;;;;;;;;5038706;28;20040;-92
2023/03/25 09:01:25;;;;;;;5.15;2.75;;;;;;;;;;5038653;28;20044;-96
2023/03/25 09:03:54;;;;;;;1.77;1.23;;;;;;;;;;5030871;28;20053;-92
2023/03/25 09:06:20;;;;;;;3.55;1.65;;;;;;;;;;5025463;28;20033;-86
2023/03/25 09:08:46;;;;;;;2.90;2.10;;;;;;;;;;5036625;28;20029;-91
2023/03/25 09:11:14;;;;;;;5.68;1.73;;;;;;;;;;5036950;28;20034;-90
2023/03/25 09:13:40;;;;;;;3.83;2.85;;;;;;;;;;5038173;28;20030;-84
2023/03/25 09:16:07;;;;;;;7.20;4.47;;;;;;;;;;5037923;28;20081;-84
2023/03/25 09:18:35;;;;;;;9.43;4.85;;;;;;;;;;5036535;28;20030;-89
2023/03/25 09:21:01;;;;;;;5.78;3.15;;;;;;;;;;5038054;28;20029;-89
2023/03/25 09:23:28;;;;;;;5.63;3.00;;;;;;;;;;5037957;28;20424;-89
2023/03/25 09:25:55;;;;;;;6.47;3.65;;;;;;;;;;5037861;28;20403;-89
2023/03/25 09:28:21;;;;;;;3.60;2.20;;;;;;;;;;5037769;28;20042;-90
2023/03/25 09:30:47;;;;;;;5.95;3.03;;;;;;;;;;5037933;28;20404;-89
2023/03/25 09:33:13;;;;;;;5.47;2.53;;;;;;;;;;5038051;28;20026;-90
2023/03/25 09:35:40;;;;;;;6.80;4.15;;;;;;;;;;5038197;28;20067;-93
2023/03/25 09:38:06;;;;;;;5.88;3.13;;;;;;;;;;5036921;28;20036;-89
2023/03/25 09:40:33;;;;;;;6.80;2.97;;;;;;;;;;5037569;28;20419;-90
2023/03/25 09:43:03;;;;;;;4.22;2.58;;;;;;;;;;5037711;28;20033;-90
2023/03/25 09:45:29;;;;;;;11.27;3.45;;;;;;;;;;5037839;28;20025;-90
2023/03/25 09:48:13;;;;;;;7.13;3.05;;;;;;;;;;5037780;28;20041;-89
2023/03/25 09:50:41;;;;;;;4.40;2.40;;;;;;;;;;5037136;28;20041;-89
2023/03/25 09:53:10;;;;;;;4.85;2.67;;;;;;;;;;5037650;28;20025;-89
2023/03/25 09:55:40;;;;;;;5.07;2.33;;;;;;;;;;5036887;28;20481;-90
2023/03/25 09:58:15;;;;;;;4.70;2.33;;;;;;;;;;5037482;28;20029;-87
2023/03/25 10:00:41;;;;;;;2.72;1.92;;;;;;;;;;5036562;28;20025;-89
2023/03/25 10:03:13;;;;;;;4.07;2.70;;;;;;;;;;5037761;28;20025;-89
2023/03/25 10:05:39;;;;;;;;;;;;;;;;;;5038015;28;20152;-88
2023/03/25 10:08:21;;;;;;;3.47;2.55;;;;;;;;;;5036030;28;19967;-87
2023/03/25 10:11:04;;;;;;;4.63;2.90;;;;;;;;;;5023473;28;20034;-86
2023/03/25 10:13:30;;;;;;;4.35;2.42;;;;;;;;;;5020436;28;20431;-87
2023/03/25 10:16:15;;;;;;;3.25;2.25;;;;;;;;;;5039063;28;20124;-87
2023/03/25 10:19:00;;;;;;;3.05;2.10;;;;;;;;;;5040333;28;20024;-87
2023/03/25 10:21:32;;;;;;;5.13;3.15;;;;;;;;;;5041448;28;20021;-88
2023/03/25 10:27:12;;;;;;;3.38;2.40;;;;;;;;;;5027838;28;19920;-88
2023/03/25 10:29:40;;;;;;;3.15;2.40;;;;;;;;;;5020397;28;20053;-89
2023/03/25 10:32:10;;;;;;;4.18;1.70;;;;;;;;;;5020519;28;20026;-88
2023/03/25 10:34:38;;;;;;;2.95;1.65;;;;;;;;;;5021657;28;20021;-87
2023/03/25 10:37:07;;;;;;;3.17;1.60;;;;;;;;;;5020501;28;20057;-88
2023/03/25 10:39:38;;;;;;;2.15;1.70;;;;;;;;;;5038615;28;20026;-88
2023/03/25 10:42:14;;;;;;;3.83;2.17;;;;;;;;;;5031873;28;20366;-88
2023/03/25 10:44:40;;;;;;;2.45;1.48;;;;;;;;;;5033866;28;20026;-87
2023/03/25 10:47:08;;;;;;;3.95;1.75;;;;;;;;;;5021154;28;20072;-87
2023/03/25 10:49:36;;;;;;;3.38;1.45;;;;;;;;;;5037245;28;20084;-88
2023/03/25 10:52:02;;;;;;;2.70;1.88;;;;;;;;;;5040048;28;20025;-88
2023/03/25 10:54:34;;;;;;;3.45;1.90;;;;;;;;;;5040648;28;20025;-88
2023/03/25 10:57:05;;;;;;;2.05;1.20;;;;;;;;;;5039251;28;20327;-91
2023/03/25 10:59:34;;;;;;;3.33;1.55;;;;;;;;;;5040137;28;20060;-89
2023/03/25 11:02:03;;;;;;;3.65;1.60;;;;;;;;;;5039728;28;20112;-89
2023/03/25 11:04:32;;;;;;;3.70;1.42;;;;;;;;;;5039417;28;20025;-89
2023/03/25 11:06:59;;;;;;;3.67;2.10;;;;;;;;;;5039558;28;20025;-90
2023/03/25 11:09:29;;;;;;;17.92;5.38;;;;;;;;;;5040277;28;20071;-90
2023/03/25 11:11:56;;;;;;;5.07;1.65;;;;;;;;;;5039530;28;20056;-90
2023/03/25 11:14:23;;;;;;;2.08;1.48;;;;;;;;;;5039287;28;20030;-91
2023/03/25 11:17:01;;;;;;;5.18;2.25;;;;;;;;;;5039187;28;20029;-90
2023/03/25 11:19:30;;;;;;;3.50;1.38;;;;;;;;;;5039445;28;20033;-89
2023/03/25 11:22:07;;;;;;;4.30;1.55;;;;;;;;;;5039124;28;20074;-89
2023/03/25 11:24:34;;;;;;;3.30;1.70;;;;;;;;;;5025836;28;20041;-90
2023/03/25 11:27:01;;;;;;;1.23;0.98;;;;;;;;;;5038975;28;20061;-89
2023/03/25 11:29:29;;;;;;;2.75;1.63;;;;;;;;;;5038825;28;20056;-87
2023/03/25 11:32:04;;;;;;;5.93;2.08;;;;;;;;;;5039178;28;20022;-90
2023/03/25 11:34:30;;;;;;;3.22;1.42;;;;;;;;;;5040191;28;20075;-90
2023/03/25 11:37:03;;;;;;;2.03;1.23;;;;;;;;;;5040312;28;20104;-89
2023/03/25 11:39:34;;;;;;;4.35;1.48;;;;;;;;;;5040113;28;20044;-90
2023/03/25 11:42:10;;;;;;;5.70;3.17;;;;;;;;;;5038770;28;20036;-90
2023/03/25 11:44:37;;;;;;;3.53;1.75;;;;;;;;;;5038855;28;20030;-90
2023/03/25 11:47:09;;;;;;;4.97;1.80;;;;;;;;;;5039914;28;20293;-89
2023/03/25 11:49:37;;;;;;;2.72;1.50;;;;;;;;;;5039062;28;20024;-91
2023/03/25 11:52:15;;;;;;;2.25;1.52;;;;;;;;;;5031939;28;20041;-88
2023/03/25 11:54:44;;;;;;;5.47;1.50;;;;;;;;;;5028408;28;20030;-90
2023/03/25 11:57:20;;;;;;;4.05;1.70;;;;;;;;;;5024752;28;20059;-91
2023/03/25 11:59:47;;;;;;;6.38;1.48;;;;;;;;;;5027162;28;20424;-89
2023/03/25 12:02:35;;;;;;;2.10;1.42;;;;;;;;;;5030432;28;20045;-89
2023/03/25 12:05:02;;;;;;;3.28;1.55;;;;;;;;;;5033309;28;20064;-89
2023/03/25 12:07:30;;;;;;;3.20;2.20;;;;;;;;;;5033938;28;20030;-89
2023/03/25 12:09:58;;;;;;;4.30;1.98;;;;;;;;;;5029279;28;20041;-89
2023/03/25 12:12:31;;;;;;;3.22;1.75;;;;;;;;;;5037463;28;20447;-89
2023/03/25 12:15:09;;;;;;;7.85;3.42;;;;;;;;;;5032643;28;20033;-88
2023/03/25 12:17:50;;;;;;;5.13;2.80;;;;;;;;;;5022998;28;20026;-88
2023/03/25 12:20:22;;;;;;;6.50;2.80;;;;;;;;;;5020119;28;20026;-88
2023/03/25 12:22:49;;;;;;;;;;;;;;;;;;5038425;28;20037;-88
2023/03/25 12:25:27;;;;;;;4.28;1.92;;;;;;;;;;5038580;28;19913;-89
2023/03/25 12:28:12;;;;;;;2.70;1.58;;;;;;;;;;5018729;28;20100;-89
2023/03/25 12:30:41;;;;;;;4.93;2.08;;;;;;;;;;5033186;28;20045;-90
2023/03/25 12:33:21;;;;;;;3.67;2.20;;;;;;;;;;5024666;28;20030;-89
2023/03/25 12:35:57;;;;;;;2.83;1.70;;;;;;;;;;5024680;28;20030;-90
2023/03/25 12:38:35;;;;;;;4.28;2.78;;;;;;;;;;5027142;28;20117;-89
2023/03/25 12:41:13;;;;;;;8.45;5.60;;;;;;;;;;5029551;28;20112;-89
2023/03/25 12:43:39;;;;;;;10.70;6.95;;;;;;;;;;5039225;28;20029;-89
2023/03/25 12:46:36;;;;;;;7.57;4.18;;;;;;;;;;5035547;28;20082;-89
2023/03/25 12:49:17;;;;;;;2.38;1.40;;;;;;;;;;5033082;28;20030;-89
2023/03/25 12:51:49;;;;;;;13.18;6.30;;;;;;;;;;5031079;28;20026;-89
2023/03/25 12:54:24;;;;;;;;;;;;;;;;;;5033791;28;20033;-90
2023/03/25 12:57:04;;;;;;;5.45;2.33;;;;;;;;;;5032400;28;20311;-89
2023/03/25 12:59:49;;;;;;;8.57;4.72;;;;;;;;;;5029621;28;20037;-89
2023/03/25 13:02:15;;;;;;;11.38;5.57;;;;;;;;;;5034142;28;20025;-90
2023/03/25 13:04:41;;;;;;;11.20;6.40;;;;;;;;;;5036892;28;20060;-89
2023/03/25 13:07:28;;;;;;;2.63;1.73;;;;;;;;;;5022457;28;20053;-89
2023/03/25 13:10:06;;;;;;;3.75;1.20;;;;;;;;;;5025866;28;20025;-89
2023/03/25 13:12:40;;;;;;;7.47;1.77;;;;;;;;;;5017294;28;20026;-89
2023/03/25 13:15:15;;;;;;;7.72;3.60;;;;;;;;;;5031582;28;20033;-89
2023/03/25 13:17:43;;;;;;;11.00;5.20;;;;;;;;;;5034335;28;20056;-89
2023/03/25 13:20:10;;;;;;;11.68;5.15;;;;;;;;;;5034501;28;20042;-88
2023/03/25 13:22:45;;;;;;;14.45;6.95;;;;;;;;;;5032617;28;20124;-93
2023/03/25 13:25:19;;;;;;;12.18;5.18;;;;;;;;;;5021963;28;20407;-89
2023/03/25 13:27:50;;;;;;;17.98;10.05;;;;;;;;;;5031964;28;20046;-89
2023/03/25 13:30:21;;;;;;;16.30;9.95;;;;;;;;;;5024879;28;20037;-89
2023/03/25 13:32:49;;;;;;;23.20;18.50;;;;;;;;;;5021037;28;20029;-89
2023/03/25 13:35:23;;;;;;;7.97;5.95;;;;;;;;;;5026854;28;20018;-89
2023/03/25 13:37:55;;;;;;;10.48;4.93;;;;;;;;;;5034355;28;20108;-89
2023/03/25 13:40:36;;;;;;;3.28;1.40;;;;;;;;;;5027890;28;20351;-88
2023/03/25 13:43:02;;;;;;;7.90;2.97;;;;;;;;;;5027132;28;20227;-90
2023/03/25 13:45:31;;;;;;;20.90;9.05;;;;;;;;;;5020439;28;20028;-89
2023/03/25 13:48:25;;;;;;;13.02;6.25;;;;;;;;;;5029646;28;20088;-91
2023/03/25 13:50:51;;;;;;;10.20;4.72;;;;;;;;;;5034429;28;20029;-90
2023/03/25 13:53:22;;;;;;;6.88;2.65;;;;;;;;;;5029431;28;20029;-89
2023/03/25 13:55:53;;;;;;;8.27;3.00;;;;;;;;;;5032761;28;20022;-88
2023/03/25 13:58:38;;;;;;;6.03;3.58;;;;;;;;;;5028014;28;20332;-89
2023/03/25 14:01:10;;;;;;;13.52;8.73;;;;;;;;;;5029546;28;20029;-88
2023/03/25 14:03:43;;;;;;;6.88;3.60;;;;;;;;;;5022974;28;20061;-87
2023/03/25 14:06:28;;;;;;;5.85;3.03;;;;;;;;;;5031304;28;20041;-88
2023/03/25 14:09:17;;;;;;;6.43;2.80;;;;;;;;;;5017462;28;20340;-89
2023/03/25 14:11:45;;;;;;;5.43;3.38;;;;;;;;;;5033460;28;20427;-88
2023/03/25 14:14:16;;;;;;;5.35;3.60;;;;;;;;;;5023150;28;20482;-88
2023/03/25 14:16:45;;;;;;;8.60;4.75;;;;;;;;;;5024709;28;20026;-88
2023/03/25 14:19:14;;;;;;;12.23;6.68;;;;;;;;;;5022880;28;20034;-89
2023/03/25 14:21:41;;;;;;;5.53;3.45;;;;;;;;;;5034635;28;20033;-89
2023/03/25 14:24:17;;;;;;;5.88;3.10;;;;;;;;;;5029385;28;20041;-89
2023/03/25 14:26:50;;;;;;;6.30;3.78;;;;;;;;;;5023986;28;20144;-89
2023/03/25 14:29:25;;;;;;;7.75;3.85;;;;;;;;;;5025407;28;20038;-88
2023/03/25 14:32:01;;;;;;;8.00;4.82;;;;;;;;;;5025366;28;20029;-89
2023/03/25 14:34:27;;;;;;;9.85;5.65;;;;;;;;;;5028996;28;20025;-89
2023/03/25 14:36:54;;;;;;;7.93;3.40;;;;;;;;;;5034308;28;20037;-86
2023/03/25 14:42:28;;;;;;;10.30;2.20;;;;;;;;;;5017583;28;20024;-90
2023/03/25 14:45:14;;;;;;;15.60;3.67;;;;;;;;;;5028123;28;20052;-88
2023/03/25 14:47:51;;;;;;;32.65;4.50;;;;;;;;;;5028615;28;20065;-90
2023/03/25 14:50:20;;;;;;;23.35;5.20;;;;;;;;;;5017346;28;20073;-89
2023/03/25 14:52:48;;;;;;;7.50;2.70;;;;;;;;;;5044832;28;20453;-91
2023/03/25 14:55:31;;;;;;;2.88;2.03;;;;;;;;;;5045154;28;20037;-88
2023/03/25 14:58:16;;;;;;;3.55;2.50;;;;;;;;;;5036989;28;20033;-92
2023/03/25 15:00:48;;;;;;;3.30;2.10;;;;;;;;;;5037345;28;20030;-90
2023/03/25 15:03:16;;;;;;;4.05;2.13;;;;;;;;;;5040977;28;20037;-91
2023/03/25 15:05:42;;;;;;;4.63;2.30;;;;;;;;;;5040848;28;20063;-89
2023/03/25 15:08:08;;;;;;;8.48;2.75;;;;;;;;;;5041205;28;20033;-90
2023/03/25 15:10:55;;;;;;;8.75;3.10;;;;;;;;;;5040603;28;20028;-87
2023/03/25 15:13:25;;;;;;;11.65;6.20;;;;;;;;;;5040432;28;20036;-92
2023/03/25 15:16:00;;;;;;;20.00;7.60;;;;;;;;;;5039736;28;20404;-92
2023/03/25 15:18:35;;;;;;;19.85;5.28;;;;;;;;;;5039505;28;20438;-92
2023/03/25 15:21:21;;;;;;;12.57;4.72;;;;;;;;;;5039183;28;20168;-92
2023/03/25 15:23:52;;;;;;;8.48;3.28;;;;;;;;;;5038400;28;20045;-92
2023/03/25 15:26:18;;;;;;;20.05;8.40;;;;;;;;;;5039194;28;20129;-91
2023/03/25 15:28:47;;;;;;;12.73;5.43;;;;;;;;;;5039875;28;20042;-91
2023/03/25 15:31:18;;;;;;;11.05;3.78;;;;;;;;;;5039054;28;20057;-91
2023/03/25 15:33:56;;;;;;;42.22;13.93;;;;;;;;;;5039995;28;20037;-91
2023/03/25 15:36:22;;;;;;;38.42;13.35;;;;;;;;;;5039058;28;20060;-90